createdAt,value
2022-12-17T00:02:34.636Z,49.23
2022-12-17T00:05:19.950Z,59.83
2022-12-17T00:08:05.202Z,53.67
2022-12-17T00:10:50.901Z,54.10
2022-12-17T00:13:41.204Z,52.67
2022-12-17T00:16:26.598Z,57.23
2022-12-17T00:19:11.908Z,46.70
2022-12-17T00:21:57.179Z,45.13
2022-12-17T00:24:59.379Z,46.93
2022-12-17T00:27:44.691Z,42.87
2022-12-17T00:30:31.460Z,52.43
2022-12-17T00:33:16.755Z,53.60
2022-12-17T00:36:02.045Z,51.90
2022-12-17T00:38:47.174Z,69.23
2022-12-17T00:41:32.473Z,55.37
2022-12-17T00:44:17.739Z,57.23
2022-12-17T00:47:03.132Z,52.93
2022-12-17T00:49:48.659Z,53.37
2022-12-17T00:52:34.280Z,53.27
2022-12-17T00:55:19.486Z,47.67
2022-12-17T00:58:04.888Z,52.93
2022-12-17T01:00:50.249Z,45.47
2022-12-17T01:03:35.977Z,51.70
2022-12-17T01:06:21.983Z,55.67
2022-12-17T01:09:07.436Z,51.73
2022-12-17T01:11:52.963Z,60.03
2022-12-17T01:14:43.049Z,46.53
2022-12-17T01:17:28.652Z,49.17
2022-12-17T01:20:14.365Z,52.60
2022-12-17T01:22:59.886Z,51.57
2022-12-17T01:25:45.282Z,48.53
2022-12-17T01:28:30.466Z,49.73
2022-12-17T01:31:16.188Z,48.67
2022-12-17T01:34:01.630Z,48.00
2022-12-17T01:36:46.752Z,50.20
2022-12-17T01:39:31.938Z,49.80
2022-12-17T01:42:17.645Z,48.03
2022-12-17T01:45:13.907Z,53.07
2022-12-17T01:48:23.532Z,47.97
2022-12-17T01:51:12.070Z,50.30
2022-12-17T01:54:03.450Z,45.23
2022-12-17T01:56:49.187Z,56.83
2022-12-17T01:59:38.614Z,52.90
2022-12-17T02:02:24.736Z,52.67
2022-12-17T02:05:10.323Z,50.33
2022-12-17T02:08:23.185Z,44.80
2022-12-17T02:11:21.661Z,51.27
2022-12-17T02:14:21.567Z,56.97
2022-12-17T02:17:12.996Z,54.80
2022-12-17T02:20:23.767Z,51.37
2022-12-17T02:23:33.389Z,47.47
2022-12-17T02:26:24.169Z,55.37
2022-12-17T02:29:11.150Z,53.80
2022-12-17T02:32:00.456Z,46.07
2022-12-17T02:34:48.568Z,50.57
2022-12-17T02:37:33.811Z,51.53
2022-12-17T02:40:20.743Z,48.07
2022-12-17T02:43:07.672Z,48.53
2022-12-17T02:45:55.833Z,52.07
2022-12-17T02:48:42.785Z,49.00
2022-12-17T02:51:29.186Z,49.10
2022-12-17T02:54:14.517Z,47.97
2022-12-17T02:56:59.762Z,48.07
2022-12-17T02:59:45.111Z,45.37
2022-12-17T03:02:48.071Z,51.03
2022-12-17T03:05:45.002Z,48.97
2022-12-17T03:08:31.788Z,46.70
2022-12-17T03:11:17.416Z,50.60
2022-12-17T03:14:02.939Z,50.97
2022-12-17T03:16:48.389Z,52.67
2022-12-17T03:19:33.551Z,51.83
2022-12-17T03:22:18.748Z,54.87
2022-12-17T03:25:04.139Z,53.87
2022-12-17T03:27:49.265Z,56.10
2022-12-17T03:30:36.182Z,56.63
2022-12-17T03:33:22.168Z,48.47
2022-12-17T03:36:10.942Z,51.93
2022-12-17T03:38:56.313Z,57.83
2022-12-17T03:41:41.651Z,49.43
2022-12-17T03:44:26.995Z,55.57
2022-12-17T03:47:12.233Z,53.37
2022-12-17T03:49:57.550Z,67.20
2022-12-17T03:52:43.044Z,57.63
2022-12-17T03:55:28.506Z,52.07
2022-12-17T03:58:13.946Z,53.77
2022-12-17T04:00:59.426Z,49.87
2022-12-17T04:03:44.960Z,56.70
2022-12-17T04:06:30.219Z,55.13
2022-12-17T04:09:15.364Z,52.67
2022-12-17T04:12:00.629Z,47.07
2022-12-17T04:14:46.109Z,55.43
2022-12-17T04:17:31.526Z,47.63
2022-12-17T04:20:16.922Z,51.30
2022-12-17T04:23:02.370Z,46.00
2022-12-17T04:25:47.553Z,51.07
2022-12-17T04:28:32.659Z,48.03
2022-12-17T04:31:17.931Z,52.30
2022-12-17T04:34:03.418Z,49.40
2022-12-17T04:36:48.657Z,51.67
2022-12-17T04:39:34.229Z,49.60
2022-12-17T04:42:19.697Z,56.17
2022-12-17T04:45:05.368Z,52.40
2022-12-17T04:47:50.677Z,52.50
2022-12-17T04:50:36.162Z,47.87
2022-12-17T04:53:23.479Z,47.77
2022-12-17T04:56:09.620Z,52.03
2022-12-17T04:58:56.353Z,58.20
2022-12-17T05:01:42.051Z,50.90
2022-12-17T05:04:27.273Z,62.03
2022-12-17T05:07:12.557Z,56.40
2022-12-17T05:09:57.761Z,52.80
2022-12-17T05:12:42.945Z,58.77
2022-12-17T05:15:28.622Z,52.63
2022-12-17T05:18:22.093Z,52.77
2022-12-17T05:21:07.283Z,52.33
2022-12-17T05:23:52.748Z,58.10
2022-12-17T05:26:39.557Z,54.00
2022-12-17T05:29:24.774Z,54.80
2022-12-17T05:32:10.353Z,49.77
2022-12-17T05:34:55.832Z,53.60
2022-12-17T05:37:43.090Z,54.37
2022-12-17T05:40:29.378Z,56.90
2022-12-17T05:43:19.729Z,58.03
2022-12-17T05:46:06.284Z,53.13
2022-12-17T05:48:53.101Z,50.40
2022-12-17T05:51:39.888Z,59.07
2022-12-17T05:54:25.898Z,51.20
2022-12-17T05:57:12.326Z,50.00
2022-12-17T05:59:58.326Z,51.03
2022-12-17T06:02:44.068Z,62.57
2022-12-17T06:05:30.325Z,52.10
2022-12-17T06:08:26.003Z,49.37
2022-12-17T06:11:11.401Z,53.77
2022-12-17T06:13:56.786Z,58.47
2022-12-17T06:16:42.145Z,51.37
2022-12-17T06:19:27.644Z,57.47
2022-12-17T06:22:13.147Z,51.73
2022-12-17T06:24:58.492Z,59.80
2022-12-17T06:27:43.851Z,54.80
2022-12-17T06:30:30.161Z,51.47
2022-12-17T06:33:26.396Z,53.10
2022-12-17T06:36:18.002Z,51.53
2022-12-17T06:39:05.177Z,54.73
2022-12-17T06:41:50.389Z,53.20
2022-12-17T06:44:35.879Z,52.47
2022-12-17T06:47:21.364Z,52.87
2022-12-17T06:50:06.691Z,57.90
2022-12-17T06:52:51.934Z,54.07
2022-12-17T06:55:37.162Z,55.20
2022-12-17T06:58:22.880Z,53.80
2022-12-17T07:01:09.883Z,52.00
2022-12-17T07:03:55.146Z,62.57
2022-12-17T07:06:41.270Z,54.70
2022-12-17T07:09:26.376Z,54.97
2022-12-17T07:12:11.696Z,53.43
2022-12-17T07:14:56.779Z,51.93
2022-12-17T07:17:42.017Z,57.80
2022-12-17T07:20:27.766Z,54.70
2022-12-17T07:23:14.425Z,54.80
2022-12-17T07:26:00.662Z,57.23
2022-12-17T07:28:46.127Z,53.93
2022-12-17T07:31:31.631Z,51.57
2022-12-17T07:34:17.039Z,50.67
2022-12-17T07:37:02.217Z,62.93
2022-12-17T07:39:47.731Z,52.30
2022-12-17T07:42:33.125Z,62.47
2022-12-17T07:45:18.266Z,63.80
2022-12-17T07:48:10.965Z,61.40
2022-12-17T07:50:56.370Z,61.07
2022-12-17T07:53:41.460Z,59.80
2022-12-17T07:56:26.909Z,66.97
2022-12-17T07:59:12.185Z,61.80
2022-12-17T08:01:57.645Z,61.90
2022-12-17T08:04:43.043Z,60.60
2022-12-17T08:07:28.358Z,59.40
2022-12-17T08:10:13.933Z,59.10
2022-12-17T08:12:59.204Z,61.83
2022-12-17T08:15:44.744Z,63.07
2022-12-17T08:18:30.115Z,61.47
2022-12-17T08:21:15.276Z,61.17
2022-12-17T08:24:00.738Z,62.87
2022-12-17T08:26:48.048Z,71.57
2022-12-17T08:29:34.166Z,69.83
2022-12-17T08:32:19.828Z,69.47
2022-12-17T08:35:05.166Z,60.53
2022-12-17T08:37:50.403Z,68.57
2022-12-17T08:40:35.561Z,68.80
2022-12-17T08:43:21.180Z,68.30
2022-12-17T08:46:10.776Z,71.30
2022-12-17T08:48:57.163Z,65.40
2022-12-17T08:51:43.483Z,68.50
2022-12-17T08:54:29.050Z,59.67
2022-12-17T08:57:27.055Z,61.07
2022-12-17T09:00:16.806Z,65.80
2022-12-17T09:03:02.314Z,62.83
2022-12-17T09:05:47.847Z,66.33
2022-12-17T09:08:33.025Z,57.77
2022-12-17T09:11:18.773Z,61.20
2022-12-17T09:14:04.055Z,60.13
2022-12-17T09:16:49.194Z,63.00
2022-12-17T09:19:34.818Z,58.93
2022-12-17T09:22:20.085Z,62.73
2022-12-17T09:25:05.535Z,66.83
2022-12-17T09:27:50.985Z,63.77
2022-12-17T09:30:36.533Z,61.47
2022-12-17T09:33:21.919Z,53.90
2022-12-17T09:36:08.975Z,63.30
2022-12-17T09:38:54.542Z,52.43
2022-12-17T09:42:00.405Z,60.47
2022-12-17T09:44:54.397Z,57.50
2022-12-17T09:48:09.537Z,63.37
2022-12-17T09:50:55.134Z,63.50
2022-12-17T09:53:54.287Z,63.70
2022-12-17T09:56:42.785Z,59.60
2022-12-17T09:59:40.295Z,67.80
2022-12-17T10:02:37.778Z,65.50
2022-12-17T10:05:31.557Z,59.83
2022-12-17T10:08:18.257Z,59.63
2022-12-17T10:11:05.126Z,60.53
2022-12-17T10:13:50.166Z,71.03
2022-12-17T10:16:52.393Z,57.80
2022-12-17T10:19:54.295Z,60.10
2022-12-17T10:22:41.398Z,63.27
2022-12-17T10:25:41.309Z,59.20
2022-12-17T10:28:32.343Z,55.33
2022-12-17T10:31:19.019Z,59.00
2022-12-17T10:34:05.502Z,53.77
2022-12-17T10:36:51.163Z,55.57
2022-12-17T10:39:40.891Z,54.60
2022-12-17T10:42:41.633Z,54.30
2022-12-17T10:45:47.728Z,57.00
2022-12-17T10:48:45.907Z,57.07
2022-12-17T10:51:43.429Z,53.43
2022-12-17T10:54:45.420Z,57.87
2022-12-17T10:57:43.285Z,54.03
2022-12-17T11:00:47.562Z,51.83
2022-12-17T11:03:56.228Z,56.67
2022-12-17T11:06:50.704Z,56.30
2022-12-17T11:09:56.010Z,63.17
2022-12-17T11:13:11.712Z,55.60
2022-12-17T11:16:04.171Z,50.90
2022-12-17T11:18:58.636Z,57.90
2022-12-17T11:21:47.505Z,62.40
2022-12-17T11:24:50.843Z,53.47
2022-12-17T11:27:42.865Z,58.20
2022-12-17T11:30:35.727Z,48.43
2022-12-17T11:33:46.553Z,54.27
2022-12-17T11:36:45.082Z,56.50
2022-12-17T11:39:41.419Z,58.53
2022-12-17T11:42:56.274Z,56.87
2022-12-17T11:45:50.550Z,54.47
2022-12-17T11:48:48.270Z,59.53
2022-12-17T11:51:42.538Z,61.73
2022-12-17T11:54:41.315Z,63.33
2022-12-17T11:57:43.146Z,55.77
2022-12-17T12:00:39.994Z,64.77
2022-12-17T12:03:58.474Z,58.47
2022-12-17T12:07:03.452Z,59.87
2022-12-17T12:09:59.815Z,62.43
2022-12-17T12:13:11.833Z,53.03
2022-12-17T12:16:21.851Z,56.27
2022-12-17T12:19:25.668Z,63.20
2022-12-17T12:22:30.494Z,61.07
2022-12-17T12:25:33.778Z,69.43
2022-12-17T12:28:33.015Z,59.57
2022-12-17T12:31:51.631Z,59.60
2022-12-17T12:34:41.346Z,59.37
2022-12-17T12:37:32.312Z,53.03
2022-12-17T12:40:26.418Z,55.43
2022-12-17T12:43:42.936Z,64.63
2022-12-17T12:46:49.654Z,56.83
2022-12-17T12:49:54.486Z,57.10
2022-12-17T12:52:42.933Z,56.87
2022-12-17T12:55:28.242Z,60.27
2022-12-17T12:58:17.484Z,61.23
2022-12-17T13:01:05.664Z,58.33
2022-12-17T13:03:52.473Z,60.23
2022-12-17T13:06:44.159Z,66.40
2022-12-17T13:09:17.390Z,62.73
2022-12-17T13:12:04.210Z,68.33
2022-12-17T13:14:35.342Z,58.37
2022-12-17T13:17:02.034Z,61.80
2022-12-17T13:19:31.826Z,71.07
2022-12-17T13:22:11.861Z,60.43
2022-12-17T13:24:38.870Z,66.77
2022-12-17T13:27:25.895Z,63.43
2022-12-17T13:29:52.630Z,68.40
2022-12-17T13:32:29.741Z,66.97
2022-12-17T13:35:24.239Z,63.23
2022-12-17T13:38:18.470Z,61.77
2022-12-17T13:41:08.134Z,62.07
2022-12-17T13:43:59.622Z,65.63
2022-12-17T13:46:45.175Z,68.57
2022-12-17T13:49:25.491Z,70.23
2022-12-17T13:52:17.786Z,68.17
2022-12-17T13:54:44.934Z,63.53
2022-12-17T13:57:27.825Z,63.73
2022-12-17T13:59:59.795Z,56.50
2022-12-17T14:02:32.344Z,63.13
2022-12-17T14:05:07.421Z,67.13
2022-12-17T14:07:38.580Z,61.40
2022-12-17T14:10:13.765Z,67.47
2022-12-17T14:12:40.578Z,62.90
2022-12-17T14:15:24.357Z,63.67
2022-12-17T14:17:52.282Z,59.23
2022-12-17T14:20:50.873Z,63.53
2022-12-17T14:23:37.885Z,56.53
2022-12-17T14:26:05.162Z,59.10
2022-12-17T14:28:34.879Z,65.70
2022-12-17T14:31:29.562Z,58.47
2022-12-17T14:34:11.467Z,67.47
2022-12-17T14:36:41.643Z,69.23
2022-12-17T14:39:20.067Z,64.53
2022-12-17T14:42:06.098Z,66.27
2022-12-17T14:44:33.205Z,68.70
2022-12-17T14:47:23.415Z,68.63
2022-12-17T14:49:59.187Z,66.80
2022-12-17T14:52:40.494Z,60.67
2022-12-17T14:55:22.711Z,77.23
2022-12-17T14:57:54.740Z,83.00
2022-12-17T15:00:21.895Z,74.57
2022-12-17T15:02:54.725Z,61.77
2022-12-17T15:05:21.667Z,58.40
2022-12-17T15:07:48.555Z,66.20
2022-12-17T15:10:20.365Z,57.83
2022-12-17T15:12:48.710Z,61.27
2022-12-17T15:15:16.250Z,64.87
2022-12-17T15:17:43.189Z,64.30
2022-12-17T15:20:17.285Z,63.67
2022-12-17T15:22:44.083Z,65.70
2022-12-17T15:25:15.798Z,59.20
2022-12-17T15:27:42.586Z,66.03
2022-12-17T15:30:19.123Z,68.30
2022-12-17T15:32:47.195Z,66.03
2022-12-17T15:35:14.471Z,66.90
2022-12-17T15:37:41.251Z,64.87
2022-12-17T15:40:11.841Z,66.10
2022-12-17T15:43:00.286Z,64.93
2022-12-17T15:45:31.150Z,64.10
2022-12-17T15:47:58.101Z,68.57
2022-12-17T15:50:26.340Z,70.63
2022-12-17T15:52:53.092Z,70.77
2022-12-17T15:55:20.240Z,73.80
2022-12-17T15:57:46.936Z,73.90
2022-12-17T16:00:14.190Z,74.20
2022-12-17T16:02:41.103Z,70.07
2022-12-17T16:05:08.725Z,62.43
2022-12-17T16:07:36.986Z,63.33
2022-12-17T16:10:05.769Z,63.27
2022-12-17T16:12:32.989Z,56.33
2022-12-17T16:14:59.701Z,67.17
2022-12-17T16:17:26.461Z,59.10
2022-12-17T16:19:53.371Z,64.37
2022-12-17T16:22:20.161Z,60.87
2022-12-17T16:24:47.287Z,63.03
2022-12-17T16:27:14.634Z,58.23
2022-12-17T16:29:41.391Z,60.30
2022-12-17T16:32:08.807Z,61.10
2022-12-17T16:34:35.560Z,59.97
2022-12-17T16:37:02.513Z,56.47
2022-12-17T16:39:29.383Z,70.77
2022-12-17T16:41:56.075Z,61.63
2022-12-17T16:44:22.761Z,91.90
2022-12-17T16:46:49.710Z,68.17
2022-12-17T16:49:21.821Z,69.63
2022-12-17T16:51:53.564Z,66.43
2022-12-17T16:54:27.556Z,60.03
2022-12-17T16:56:55.315Z,60.50
2022-12-17T16:59:23.256Z,62.50
2022-12-17T17:01:51.916Z,72.00
2022-12-17T17:04:21.452Z,65.10
2022-12-17T17:06:50.922Z,70.40
2022-12-17T17:09:19.238Z,78.63
2022-12-17T17:11:51.185Z,63.73
2022-12-17T17:14:19.022Z,72.10
2022-12-17T17:16:46.046Z,65.47
2022-12-17T17:19:12.883Z,59.90
2022-12-17T17:21:41.880Z,72.53
2022-12-17T17:24:18.452Z,58.73
2022-12-17T17:26:48.428Z,64.33
2022-12-17T17:29:15.283Z,62.80
2022-12-17T17:34:29.036Z,60.90
2022-12-17T17:36:55.776Z,60.03
2022-12-17T17:39:22.509Z,69.60
2022-12-17T17:41:49.350Z,65.13
2022-12-17T17:44:16.532Z,65.23
2022-12-17T17:46:43.658Z,59.23
2022-12-17T17:49:11.805Z,58.60
2022-12-17T17:54:28.593Z,58.87
2022-12-17T17:56:55.494Z,63.50
2022-12-17T17:59:30.887Z,67.70
2022-12-17T18:02:00.085Z,67.67
2022-12-17T18:04:27.162Z,67.07
2022-12-17T18:07:23.645Z,58.87
2022-12-17T18:09:40.872Z,62.23
2022-12-17T18:12:26.163Z,66.87
2022-12-17T18:15:13.162Z,72.70
2022-12-17T18:17:39.937Z,71.00
2022-12-17T18:20:07.255Z,63.87
2022-12-17T18:22:33.985Z,64.77
2022-12-17T18:25:00.724Z,66.23
2022-12-17T18:27:27.520Z,76.40
2022-12-17T18:29:54.264Z,64.57
2022-12-17T18:32:21.200Z,74.83
2022-12-17T18:34:47.977Z,58.87
2022-12-17T18:37:14.986Z,62.17
2022-12-17T18:39:41.808Z,65.97
2022-12-17T18:42:27.577Z,69.43
2022-12-17T18:44:54.382Z,66.30
2022-12-17T18:47:21.625Z,66.70
2022-12-17T18:49:48.611Z,73.13
2022-12-17T18:52:17.291Z,78.47
2022-12-17T18:54:44.937Z,75.77
2022-12-17T18:57:12.275Z,69.57
2022-12-17T18:59:40.768Z,78.97
2022-12-17T19:02:11.885Z,76.80
2022-12-17T19:04:38.860Z,78.23
2022-12-17T19:07:05.577Z,75.90
2022-12-17T19:09:35.695Z,66.60
2022-12-17T19:12:04.710Z,57.77
2022-12-17T19:14:31.470Z,74.07
2022-12-17T19:16:58.249Z,65.00
2022-12-17T19:19:25.618Z,60.53
2022-12-17T19:21:54.862Z,61.50
2022-12-17T19:24:22.961Z,63.70
2022-12-17T19:26:50.982Z,62.17
2022-12-17T19:29:19.325Z,54.17
2022-12-17T19:31:46.251Z,57.63
2022-12-17T19:34:15.502Z,57.20
2022-12-17T19:36:43.500Z,54.43
2022-12-17T19:39:16.362Z,63.10
2022-12-17T19:41:43.092Z,65.67
2022-12-17T19:44:13.982Z,64.37
2022-12-17T19:46:41.761Z,64.73
2022-12-17T19:49:11.215Z,61.97
2022-12-17T19:51:40.431Z,63.80
2022-12-17T19:54:09.174Z,69.00
2022-12-17T19:56:36.491Z,65.17
2022-12-17T19:59:09.279Z,63.43
2022-12-17T20:01:39.404Z,63.47
2022-12-17T20:04:06.436Z,70.37
2022-12-17T20:06:35.001Z,68.73
2022-12-17T20:09:03.667Z,72.83
2022-12-17T20:11:33.294Z,68.27
2022-12-17T20:14:13.797Z,60.17
2022-12-17T20:16:47.197Z,59.83
2022-12-17T20:19:23.231Z,61.73
2022-12-17T20:21:50.132Z,67.77
2022-12-17T20:24:17.847Z,61.23
2022-12-17T20:26:49.852Z,54.80
2022-12-17T20:29:17.187Z,60.77
2022-12-17T20:31:49.389Z,65.27
2022-12-17T20:34:18.628Z,64.07
2022-12-17T20:36:46.137Z,70.50
2022-12-17T20:39:12.993Z,69.97
2022-12-17T20:41:40.686Z,76.37
2022-12-17T20:44:11.411Z,58.07
2022-12-17T20:46:38.317Z,63.43
2022-12-17T20:49:05.875Z,66.53
2022-12-17T20:51:33.888Z,65.00
2022-12-17T20:54:01.534Z,63.60
2022-12-17T20:56:33.602Z,59.10
2022-12-17T20:59:05.661Z,63.17
2022-12-17T21:01:35.044Z,65.40
2022-12-17T21:04:03.152Z,71.67
2022-12-17T21:06:40.788Z,66.90
2022-12-17T21:09:08.234Z,68.80
2022-12-17T21:11:37.122Z,60.47
2022-12-17T21:14:06.821Z,64.13
2022-12-17T21:16:34.616Z,66.23
2022-12-17T21:19:01.922Z,61.77
2022-12-17T21:21:30.792Z,59.20
2022-12-17T21:23:58.485Z,61.17
2022-12-17T21:26:29.149Z,51.03
2022-12-17T21:28:56.673Z,56.13
2022-12-17T21:31:26.259Z,60.43
2022-12-17T21:33:56.652Z,56.07
2022-12-17T21:36:24.813Z,54.17
2022-12-17T21:38:52.542Z,62.07
2022-12-17T21:41:26.605Z,57.60
2022-12-17T21:44:02.010Z,61.27
2022-12-17T21:46:30.085Z,65.27
2022-12-17T21:48:58.950Z,65.43
2022-12-17T21:51:26.913Z,60.73
2022-12-17T21:53:57.015Z,51.43
2022-12-17T21:56:24.105Z,54.97
2022-12-17T21:58:59.939Z,49.50
2022-12-17T22:01:29.880Z,47.17
2022-12-17T22:03:58.538Z,51.60
2022-12-17T22:06:29.878Z,51.47
2022-12-17T22:09:10.983Z,48.70
2022-12-17T22:12:09.987Z,45.73
2022-12-17T22:14:36.785Z,46.67
2022-12-17T22:17:03.595Z,42.80
2022-12-17T22:19:30.573Z,47.97
2022-12-17T22:21:58.167Z,49.13
2022-12-17T22:24:25.358Z,49.90
2022-12-17T22:26:59.456Z,52.43
2022-12-17T22:29:45.831Z,48.03
2022-12-17T22:32:34.055Z,55.17
2022-12-17T22:36:28.103Z,49.83
2022-12-17T22:41:08.259Z,51.00
2022-12-17T22:44:13.243Z,48.80
2022-12-17T22:44:41.442Z,48.97
2022-12-17T22:46:19.356Z,51.00
2022-12-17T22:48:46.981Z,53.47
2022-12-17T22:51:15.724Z,51.73
2022-12-17T22:53:50.715Z,55.03
2022-12-17T22:56:38.502Z,56.90
2022-12-17T22:59:05.738Z,56.87
2022-12-17T23:01:32.749Z,56.57
2022-12-17T23:04:01.302Z,48.20
2022-12-17T23:06:28.372Z,57.37
2022-12-17T23:08:56.003Z,55.50
2022-12-17T23:11:24.993Z,53.97
2022-12-17T23:13:52.559Z,53.37
2022-12-17T23:16:22.643Z,58.00
2022-12-17T23:18:50.488Z,64.13
2022-12-17T23:21:21.170Z,52.80
2022-12-17T23:23:48.477Z,58.40
2022-12-17T23:26:21.451Z,54.50
2022-12-17T23:28:48.386Z,75.30
2022-12-17T23:31:18.179Z,72.37
2022-12-17T23:33:45.791Z,59.13
2022-12-17T23:36:14.767Z,55.90
2022-12-17T23:38:42.631Z,66.30
2022-12-17T23:41:30.325Z,60.60
2022-12-17T23:43:58.675Z,52.47
2022-12-17T23:46:27.843Z,53.03
2022-12-17T23:48:55.086Z,55.37
2022-12-17T23:51:23.857Z,52.20
2022-12-17T23:53:50.953Z,61.70
2022-12-17T23:56:23.838Z,61.60
2022-12-17T23:58:58.764Z,54.30
